Time;durP1;ratioP1;P1;durP2;ratioP2;P2;SDS_P1;SDS_P2;PMS_P1;PMS_P2;Temp;Humidity;BMP_temperature;BMP_pressure;BME280_temperature;BME280_humidity;BME280_pressure;Samples;Min_cycle;Max_cycle;Signal;HPM_P1;HPM_P2
2022/04/11 00:00:29;;;;;;;10.37;3.93;;;;;;;0.02;70.90;99384.36;1777372;79;20998;-59
2022/04/11 00:02:57;;;;;;;8.18;2.95;;;;;;;0.03;70.96;99386.08;1773861;79;21032;-58
2022/04/11 00:05:24;;;;;;;9.13;2.70;;;;;;;0.04;71.00;99381.80;1775215;79;22005;-58
2022/04/11 00:07:51;;;;;;;12.30;2.87;;;;;;;0.07;71.01;99389.02;1772911;79;21033;-59
2022/04/11 00:10:18;;;;;;;10.00;2.65;;;;;;;0.08;71.11;99391.14;1770282;79;20910;-59
2022/04/11 00:12:45;;;;;;;12.90;3.17;;;;;;;0.07;71.14;99387.73;1778926;79;21654;-58
2022/04/11 00:15:11;;;;;;;15.93;3.08;;;;;;;0.06;71.09;99392.46;1777903;79;20965;-59
2022/04/11 00:17:38;;;;;;;10.17;2.80;;;;;;;0.05;71.24;99385.61;1777101;79;21000;-58
2022/04/11 00:20:06;;;;;;;10.73;3.67;;;;;;;0.03;71.28;99390.34;1774301;79;21056;-58
2022/04/11 00:22:36;;;;;;;8.95;2.87;;;;;;;0.02;71.29;99386.92;1773262;79;21013;-59
2022/04/11 00:25:05;;;;;;;10.23;3.20;;;;;;;0.00;71.42;99393.81;1773161;79;20954;-59
2022/04/11 00:27:31;;;;;;;9.20;2.30;;;;;;;-0.01;71.46;99394.66;1773509;79;21132;-58
2022/04/11 00:29:58;;;;;;;16.30;3.22;;;;;;;-0.03;71.53;99394.69;1775308;79;21491;-58
2022/04/11 00:32:25;;;;;;;11.28;3.72;;;;;;;-0.04;71.60;99397.26;1776964;79;21044;-58
2022/04/11 00:34:51;;;;;;;14.07;3.08;;;;;;;-0.05;71.54;99398.14;1769964;79;21540;-59
2022/04/11 00:37:19;;;;;;;11.70;3.05;;;;;;;-0.09;71.76;99401.58;1771706;79;21131;-58
2022/04/11 00:39:46;;;;;;;16.57;4.08;;;;;;;-0.10;71.76;99398.60;1775293;79;21339;-58
2022/04/11 00:42:15;;;;;;;12.23;2.90;;;;;;;-0.12;71.96;99399.89;1778261;79;21093;-59
2022/04/11 00:44:42;;;;;;;13.35;3.35;;;;;;;-0.12;71.87;99404.17;1770212;79;21542;-59
2022/04/11 00:47:08;;;;;;;13.15;3.10;;;;;;;-0.12;71.95;99413.16;1771414;79;21080;-58
2022/04/11 00:49:35;;;;;;;8.43;2.62;;;;;;;-0.14;72.05;99411.03;1776239;79;21016;-58
2022/04/11 00:52:06;;;;;;;8.63;2.93;;;;;;;-0.17;72.00;99413.63;1769749;79;21973;-58
2022/04/11 00:54:33;;;;;;;12.68;3.52;;;;;;;-0.21;72.06;99417.09;1769232;79;21030;-59
2022/04/11 00:57:00;;;;;;;13.38;3.42;;;;;;;-0.24;72.19;99416.25;1778701;79;21038;-59
2022/04/11 00:59:27;;;;;;;12.93;2.50;;;;;;;-0.27;72.35;99423.97;1777361;79;21063;-59
2022/04/11 01:01:54;;;;;;;8.93;2.87;;;;;;;-0.30;72.41;99421.44;1776570;79;21511;-59
2022/04/11 01:04:24;;;;;;;9.75;2.90;;;;;;;-0.32;72.45;99428.28;1776456;79;21615;-59
2022/04/11 01:06:52;;;;;;;8.13;2.62;;;;;;;-0.34;72.52;99427.44;1777687;79;21614;-59
2022/04/11 01:09:18;;;;;;;;;;;;;;;-0.37;72.46;99422.33;1774693;79;20954;-59
2022/04/11 01:11:45;;;;;;;10.10;2.33;;;;;;;-0.37;72.69;99422.33;1794454;78;20155;-59
2022/04/11 01:14:11;;;;;;;15.80;3.30;;;;;;;-0.38;72.71;99430.91;1771369;80;21030;-59
2022/04/11 01:16:38;;;;;;;11.07;2.77;;;;;;;-0.39;72.82;99426.65;1797265;78;22220;-59
2022/04/11 01:19:05;;;;;;;9.50;2.90;;;;;;;-0.40;72.76;99436.47;1787725;79;20990;-59
2022/04/11 01:21:31;;;;;;;10.70;3.02;;;;;;;-0.44;72.78;99428.39;1781600;79;20986;-59
2022/04/11 01:23:58;;;;;;;14.85;3.10;;;;;;;-0.45;72.93;99425.38;1768758;79;21519;-59
2022/04/11 01:26:27;;;;;;;9.45;3.02;;;;;;;-0.46;72.92;99432.67;1793063;79;21085;-59
2022/04/11 01:28:56;;;;;;;9.60;3.17;;;;;;;-0.46;73.03;99440.37;1790071;79;20973;-59
2022/04/11 01:31:22;;;;;;;10.25;3.65;;;;;;;-0.49;73.06;99440.39;1790473;78;20924;-59
2022/04/11 01:33:49;;;;;;;8.10;2.27;;;;;;;-0.51;73.11;99442.95;1773629;80;21080;-59
2022/04/11 01:36:15;;;;;;;12.05;3.70;;;;;;;-0.52;73.15;99448.11;1790827;79;21143;-59
2022/04/11 01:38:42;;;;;;;8.40;2.20;;;;;;;-0.55;73.23;99445.57;1783492;79;20950;-59
2022/04/11 01:41:09;;;;;;;8.35;2.70;;;;;;;-0.57;73.25;99450.70;1783037;80;21115;-59
2022/04/11 01:43:35;;;;;;;5.40;2.35;;;;;;;-0.60;73.22;99452.44;1769085;80;21105;-59
2022/04/11 01:46:02;;;;;;;10.72;2.27;;;;;;;-0.62;73.44;99449.02;1803007;77;20942;-59
2022/04/11 01:48:29;;;;;;;10.13;3.17;;;;;;;-0.65;73.42;99449.89;1762157;80;20954;-59
2022/04/11 01:50:55;;;;;;;8.50;2.95;;;;;;;-0.67;73.45;99449.07;1797981;78;21307;-59
2022/04/11 01:53:22;;;;;;;11.00;2.57;;;;;;;-0.69;73.52;99460.60;1792098;78;21103;-59
2022/04/11 01:55:49;;;;;;;12.85;2.58;;;;;;;-0.70;73.52;99452.50;1800555;78;21156;-59
2022/04/11 01:58:15;;;;;;;9.63;3.08;;;;;;;-0.71;73.64;99450.78;1799147;78;21013;-59
2022/04/11 02:00:43;;;;;;;6.78;2.27;;;;;;;-0.83;73.75;99427.79;1763551;80;21149;-59
2022/04/11 02:03:10;;;;;;;14.98;2.70;;;;;;;-0.76;73.89;99458.92;1798130;78;20992;-60
2022/04/11 02:05:39;;;;;;;11.75;2.72;;;;;;;-0.76;73.88;99452.51;1758834;80;21474;-59
2022/04/11 02:08:10;;;;;;;8.63;2.58;;;;;;;-0.78;73.90;99454.25;1776972;79;21072;-59
2022/04/11 02:10:38;;;;;;;13.05;2.62;;;;;;;-0.79;73.93;99452.53;1772289;79;21065;-59
2022/04/11 02:13:06;;;;;;;8.83;2.08;;;;;;;-0.83;73.97;99458.55;1766500;79;21076;-59
2022/04/11 02:15:33;;;;;;;7.97;2.30;;;;;;;-0.84;74.00;99459.42;1782158;79;21091;-59
2022/04/11 02:17:59;;;;;;;12.07;3.02;;;;;;;-0.84;74.12;99460.70;1777839;79;21072;-59
2022/04/11 02:20:26;;;;;;;11.37;3.27;;;;;;;-0.84;74.15;99455.98;1768549;79;21425;-59
2022/04/11 02:22:58;;;;;;;8.05;2.20;;;;;;;-0.84;74.25;99461.98;1800741;78;21006;-59
2022/04/11 02:25:28;;;;;;;7.78;2.35;;;;;;;-0.85;74.24;99457.70;1792281;78;21036;-59
2022/04/11 02:27:57;;;;;;;8.63;2.95;;;;;;;-0.85;74.36;99466.67;1792711;79;21606;-59
2022/04/11 02:30:25;;;;;;;13.15;3.00;;;;;;;-0.87;74.44;99476.50;1790119;79;21067;-59
2022/04/11 02:32:52;;;;;;;;;;;;;;;-0.87;74.52;99467.09;1800478;78;21071;-59
2022/04/11 02:35:19;;;;;;;9.18;3.10;;;;;;;-0.81;74.82;99470.06;1772156;78;20131;-59
2022/04/11 02:37:47;;;;;;;9.68;3.02;;;;;;;-0.78;74.77;99469.64;1772466;79;21992;-59
2022/04/11 02:40:14;;;;;;;11.33;2.62;;;;;;;-0.71;74.87;99463.59;1777600;79;20993;-60
2022/04/11 02:42:43;;;;;;;14.55;2.90;;;;;;;-0.62;74.88;99464.41;1779510;78;21133;-58
2022/04/11 02:45:13;;;;;;;9.00;2.85;;;;;;;-0.53;74.91;99466.94;1779469;79;21527;-59
2022/04/11 02:47:40;;;;;;;10.00;2.42;;;;;;;-0.47;74.98;99466.89;1774122;79;22306;-59
2022/04/11 02:50:09;;;;;;;8.15;2.40;;;;;;;-0.41;75.03;99471.97;1796725;78;20914;-59
2022/04/11 02:52:36;;;;;;;9.63;2.47;;;;;;;-0.36;75.07;99470.23;1783600;78;20954;-59
2022/04/11 02:55:04;;;;;;;9.78;2.20;;;;;;;-0.28;75.08;99472.72;1791154;78;21128;-59
2022/04/11 02:57:31;;;;;;;14.30;3.47;;;;;;;-0.25;75.11;99468.44;1781954;78;21084;-59
2022/04/11 02:59:57;;;;;;;13.10;3.20;;;;;;;-0.18;75.11;99476.09;1768389;80;21018;-59
2022/04/11 03:02:24;;;;;;;4.22;2.27;;;;;;;-0.14;75.09;99470.05;1802256;78;21363;-59
2022/04/11 03:04:51;;;;;;;11.45;2.85;;;;;;;-0.12;75.11;99478.59;1801070;78;21001;-59
2022/04/11 03:07:18;;;;;;;11.38;2.42;;;;;;;-0.11;75.22;99473.47;1798127;78;21528;-59
2022/04/11 03:09:45;;;;;;;8.63;2.65;;;;;;;-0.07;75.27;99471.72;1801318;78;21550;-59
2022/04/11 03:12:12;;;;;;;11.33;2.75;;;;;;;-0.02;75.33;99473.82;1766908;80;20996;-60
2022/04/11 03:14:38;;;;;;;9.08;2.22;;;;;;;-0.02;75.28;99472.09;1767563;80;20940;-59
2022/04/11 03:17:05;;;;;;;8.53;2.70;;;;;;;-0.01;75.39;99476.80;1802266;78;21705;-59
2022/04/11 03:19:32;;;;;;;9.27;2.57;;;;;;;0.00;75.36;99478.52;1771676;80;21644;-59
2022/04/11 03:21:59;;;;;;;9.83;2.17;;;;;;;0.02;75.42;99475.48;1801046;78;21752;-60
2022/04/11 03:24:26;;;;;;;10.95;2.42;;;;;;;0.01;75.42;99480.21;1761745;80;21161;-59
2022/04/11 03:26:52;;;;;;;12.85;2.60;;;;;;;0.02;75.49;99481.05;1784283;78;21024;-59
2022/04/11 03:29:19;;;;;;;7.50;2.27;;;;;;;0.00;75.44;99483.66;1809967;78;21574;-59
2022/04/11 03:31:46;;;;;;;11.10;2.92;;;;;;;-0.01;75.57;99482.77;1787537;78;21082;-59
2022/04/11 03:34:13;;;;;;;;;;;;;;;0.01;75.63;99484.06;1774748;79;20938;-58
2022/04/11 03:36:39;;;;;;;11.05;2.45;;;;;;;0.03;75.65;99488.76;1784481;79;20420;-59
2022/04/11 03:39:06;;;;;;;7.03;2.33;;;;;;;0.03;75.66;99488.76;1787397;79;21086;-59
2022/04/11 03:41:33;;;;;;;6.08;2.77;;;;;;;0.02;75.67;99483.19;1779540;79;21457;-59
2022/04/11 03:44:00;;;;;;;16.27;3.20;;;;;;;0.01;75.69;99487.91;1782637;78;22223;-59
2022/04/11 03:46:28;;;;;;;9.17;2.30;;;;;;;0.01;75.80;99494.77;1790339;79;20974;-59
2022/04/11 03:48:55;;;;;;;11.05;3.08;;;;;;;0.00;75.88;99490.06;1774505;80;20962;-59
2022/04/11 03:51:24;;;;;;;15.00;3.10;;;;;;;0.04;76.04;99487.88;1805163;78;27989;-59
2022/04/11 03:53:51;;;;;;;6.83;2.60;;;;;;;0.09;76.10;99489.98;1803937;78;21000;-59
2022/04/11 03:56:18;;;;;;;7.87;2.70;;;;;;;0.15;76.11;99496.34;1767543;80;22166;-59
2022/04/11 03:58:46;;;;;;;10.35;2.58;;;;;;;0.23;76.21;99495.44;1777423;79;21578;-59
2022/04/11 04:01:13;;;;;;;9.90;2.60;;;;;;;0.28;76.19;99494.53;1804978;78;21030;-60
2022/04/11 04:03:40;;;;;;;9.95;2.70;;;;;;;0.34;76.28;99496.19;1771901;78;20994;-59
2022/04/11 04:06:07;;;;;;;13.08;2.35;;;;;;;0.41;76.27;99496.53;1761488;80;21692;-59
2022/04/11 04:08:34;;;;;;;8.20;2.92;;;;;;;0.48;76.40;99496.91;1789398;79;23774;-59
2022/04/11 04:11:02;;;;;;;8.43;2.35;;;;;;;0.58;76.40;99498.49;1782780;78;20919;-59
2022/04/11 04:13:29;;;;;;;9.55;2.37;;;;;;;0.66;76.26;99501.84;1773612;79;21044;-59
2022/04/11 04:15:56;;;;;;;;;;;;;;;0.69;76.17;99507.81;1817825;78;20994;-59
2022/04/11 04:18:24;;;;;;;8.98;2.05;;;;;;;0.76;76.33;99504.33;1807377;78;20094;-59
2022/04/11 04:20:51;;;;;;;9.40;2.50;;;;;;;0.76;76.17;99504.33;1808740;78;21287;-58
2022/04/11 04:23:18;;;;;;;11.65;3.33;;;;;;;0.75;76.20;99503.89;1774681;80;21487;-58
2022/04/11 04:25:45;;;;;;;9.60;2.65;;;;;;;0.84;76.47;99509.80;1784037;78;20992;-59
2022/04/11 04:28:13;;;;;;;7.37;2.70;;;;;;;1.19;76.74;99517.95;1791807;79;21504;-58
2022/04/11 04:30:40;;;;;;;8.00;2.22;;;;;;;1.56;76.63;99517.88;1793244;79;22337;-59
2022/04/11 04:33:07;;;;;;;8.68;2.60;;;;;;;1.69;76.17;99510.00;1809019;78;21211;-60
2022/04/11 04:35:33;;;;;;;7.45;2.72;;;;;;;1.65;76.00;99516.89;1816498;78;21506;-59
2022/04/11 04:38:00;;;;;;;11.97;2.50;;;;;;;1.57;75.99;99525.19;1811745;78;21024;-59
2022/04/11 04:40:27;;;;;;;13.35;3.00;;;;;;;1.50;76.11;99529.54;1797445;78;20938;-59
2022/04/11 04:42:54;;;;;;;9.73;2.85;;;;;;;1.66;76.57;99532.77;1803325;78;20955;-59
2022/04/11 04:45:20;;;;;;;11.03;3.37;;;;;;;2.42;77.33;99528.13;1784443;79;21138;-59
2022/04/11 04:47:47;;;;;;;7.05;2.30;;;;;;;3.24;76.74;99523.58;1779932;79;21365;-59
2022/04/11 04:50:14;;;;;;;9.80;2.52;;;;;;;3.40;76.05;99524.11;1789872;79;20961;-59
2022/04/11 04:52:40;;;;;;;10.73;2.50;;;;;;;3.36;75.53;99533.66;1784931;79;21632;-59
2022/04/11 04:55:09;;;;;;;11.50;2.10;;;;;;;3.27;75.51;99532.98;1797358;78;20939;-59
2022/04/11 04:57:36;;;;;;;12.23;2.27;;;;;;;3.21;75.81;99536.54;1781777;79;21145;-59
2022/04/11 05:00:07;;;;;;;9.25;2.65;;;;;;;3.31;75.97;99538.06;1788200;79;20983;-59
2022/04/11 05:02:38;;;;;;;8.35;2.37;;;;;;;3.46;76.07;99536.04;1781072;79;21011;-59
2022/04/11 05:05:08;;;;;;;9.20;2.55;;;;;;;3.62;75.55;99540.44;1800809;78;21030;-59
2022/04/11 05:07:35;;;;;;;9.00;3.12;;;;;;;3.81;75.88;99546.45;1768868;80;21296;-59
2022/04/11 05:10:06;;;;;;;6.40;2.30;;;;;;;3.80;75.41;99544.73;1778124;78;24425;-59
2022/04/11 05:12:45;;;;;;;5.03;2.12;;;;;;;4.22;76.19;99550.23;1807332;78;21618;-59
2022/04/11 05:15:14;;;;;;;6.90;2.25;;;;;;;5.21;76.94;99543.34;1802832;78;21537;-59
2022/04/11 05:17:41;;;;;;;6.83;1.95;;;;;;;6.53;76.57;99541.47;1769432;80;21569;-59
2022/04/11 05:20:11;;;;;;;7.37;2.58;;;;;;;7.69;76.20;99539.02;1796030;78;21026;-59
2022/04/11 05:22:40;;;;;;;9.53;2.65;;;;;;;8.76;76.00;99537.76;1806138;78;21168;-59
2022/04/11 05:25:08;;;;;;;4.65;1.85;;;;;;;9.63;74.95;99537.80;1771348;80;21027;-59
2022/04/11 05:27:35;;;;;;;8.53;2.65;;;;;;;10.27;74.09;99543.03;1777732;80;21038;-62
2022/04/11 05:30:05;;;;;;;8.18;2.55;;;;;;;10.66;73.52;99539.83;1784594;78;20942;-60
2022/04/11 05:32:33;;;;;;;8.30;2.80;;;;;;;10.87;72.44;99540.05;1780581;79;20983;-60
2022/04/11 05:35:01;;;;;;;11.70;2.92;;;;;;;11.04;72.46;99538.34;1775859;80;21527;-61
2022/04/11 05:37:27;;;;;;;;;;;;;;;11.34;72.67;99538.04;1766944;80;21089;-62
2022/04/11 05:39:53;;;;;;;7.53;2.27;;;;;;;11.56;72.11;99529.86;1785532;79;20176;-61
2022/04/11 05:42:20;;;;;;;7.00;2.10;;;;;;;12.07;72.92;99532.31;1777064;79;21653;-60
2022/04/11 05:44:47;;;;;;;9.45;2.55;;;;;;;12.57;72.61;99531.19;1788706;79;21018;-62
2022/04/11 05:47:13;;;;;;;5.37;1.75;;;;;;;12.79;72.15;99532.55;1781512;79;21420;-61
2022/04/11 05:49:40;;;;;;;14.68;2.47;;;;;;;12.89;71.74;99537.64;1781929;79;21120;-61
2022/04/11 05:52:08;;;;;;;9.88;2.30;;;;;;;13.20;71.66;99538.77;1802529;78;21023;-61
2022/04/11 05:54:40;;;;;;;7.22;2.45;;;;;;;13.39;71.87;99542.94;1787855;79;21041;-61
2022/04/11 05:57:07;;;;;;;10.55;3.02;;;;;;;13.72;72.00;99536.50;1770720;79;20964;-60
2022/04/11 05:59:34;;;;;;;8.58;2.62;;;;;;;14.02;71.52;99541.11;1786677;79;21424;-63
2022/04/11 06:02:00;;;;;;;11.05;3.05;;;;;;;14.24;70.76;99541.04;1802729;78;21538;-60
2022/04/11 06:04:27;;;;;;;6.60;2.58;;;;;;;13.99;69.37;99542.62;1800651;78;20958;-61
2022/04/11 06:06:54;;;;;;;7.12;2.27;;;;;;;13.84;69.61;99539.20;1797118;78;20939;-60
2022/04/11 06:09:21;;;;;;;9.83;3.05;;;;;;;13.24;68.39;99550.38;1761328;80;21017;-60
2022/04/11 06:11:48;;;;;;;;;;;;;;;12.38;68.60;99548.89;1783525;79;21478;-60
2022/04/11 06:14:14;;;;;;;7.53;2.50;;;;;;;12.29;68.97;99548.52;1781263;79;20093;-60
2022/04/11 06:16:41;;;;;;;6.28;2.20;;;;;;;12.03;68.68;99551.75;1784260;79;21537;-60
2022/04/11 06:19:08;;;;;;;6.67;2.20;;;;;;;11.81;67.95;99556.82;1806962;77;21065;-60
2022/04/11 06:21:35;;;;;;;6.95;2.22;;;;;;;11.78;68.93;99550.45;1810538;78;20952;-60
2022/04/11 06:24:01;;;;;;;7.12;2.17;;;;;;;12.17;68.93;99550.98;1806379;78;21473;-61
2022/04/11 06:26:28;;;;;;;9.25;2.62;;;;;;;12.28;67.93;99552.05;1803135;78;21020;-61
2022/04/11 06:28:55;;;;;;;13.40;3.15;;;;;;;12.45;67.78;99554.17;1806569;78;21048;-62
2022/04/11 06:31:21;;;;;;;8.10;2.60;;;;;;;12.51;67.35;99550.72;1800893;78;20890;-61
2022/04/11 06:33:48;;;;;;;6.85;2.85;;;;;;;12.88;67.53;99558.20;1805581;77;21017;-61
2022/04/11 06:36:15;;;;;;;7.55;2.42;;;;;;;12.97;66.51;99552.44;1795274;78;21483;-61
2022/04/11 06:38:41;;;;;;;11.50;3.00;;;;;;;13.08;66.41;99551.33;1784606;78;20904;-65
2022/04/11 06:41:09;;;;;;;7.15;2.72;;;;;;;12.98;66.48;99559.35;1811341;78;21013;-62
2022/04/11 06:43:35;;;;;;;8.40;2.92;;;;;;;12.94;65.67;99560.48;1811841;77;20974;-61
2022/04/11 06:46:02;;;;;;;;;;;;;;;12.70;65.42;99561.45;1808550;78;20975;-61
2022/04/11 06:48:30;;;;;;;10.10;2.80;;;;;;;12.63;65.04;99571.45;1809730;78;20955;-59
2022/04/11 06:50:57;;;;;;;12.37;2.83;;;;;;;12.73;65.56;99562.11;1806371;77;21132;-59
2022/04/11 06:53:24;;;;;;;6.65;2.47;;;;;;;13.01;65.27;99567.03;1806827;78;20963;-59
2022/04/11 06:55:51;;;;;;;;;;;;;;;12.58;62.98;99566.95;1807324;78;21484;-59
2022/04/11 06:58:18;;;;;;;;;;;;;;;12.41;63.79;99569.70;1786802;79;20158;-59
2022/04/11 07:00:45;;;;;;;;;;;;;;;12.17;63.09;99568.83;1782311;79;22098;-59
2022/04/11 07:03:12;;;;;;;10.53;2.47;;;;;;;12.21;63.89;99571.67;1791547;78;20149;-62
2022/04/11 07:05:40;;;;;;;10.20;2.52;;;;;;;12.38;63.70;99567.23;1797459;78;21041;-63
2022/04/11 07:08:08;;;;;;;7.78;1.72;;;;;;;11.91;62.04;99569.45;1789841;78;21005;-64
2022/04/11 07:10:37;;;;;;;9.35;2.27;;;;;;;11.58;61.85;99579.47;1798077;78;21021;-63
2022/04/11 07:13:04;;;;;;;6.90;1.85;;;;;;;11.01;61.07;99573.74;1795956;79;21514;-74
2022/04/11 07:15:32;;;;;;;8.60;2.20;;;;;;;10.26;59.77;99582.23;1791536;79;20997;-68
2022/04/11 07:17:59;;;;;;;6.42;1.95;;;;;;;9.41;61.00;99585.30;1792296;79;21182;-65
2022/04/11 07:20:25;;;;;;;6.62;1.77;;;;;;;8.86;61.06;99588.99;1800243;79;21089;-62
2022/04/11 07:22:52;;;;;;;6.33;1.85;;;;;;;8.22;60.61;99597.19;1797534;78;21004;-64
2022/04/11 07:25:18;;;;;;;9.97;1.50;;;;;;;7.59;59.39;99592.27;1791654;79;21662;-61
2022/04/11 07:27:45;;;;;;;5.30;1.93;;;;;;;7.59;59.39;99592.27;1781235;79;21503;-66
2022/04/11 07:30:13;;;;;;;5.65;1.98;;;;;;;7.08;59.96;99598.41;1793376;79;21041;-68
2022/04/11 07:32:39;;;;;;;;;;;;;;;6.94;60.88;99606.21;1800724;79;21091;-59
2022/04/11 07:35:07;;;;;;;5.73;1.60;;;;;;;7.27;61.60;99599.45;1790406;79;20172;-60
2022/04/11 07:37:34;;;;;;;8.80;1.60;;;;;;;7.85;61.92;99602.52;1791592;79;21824;-59
2022/04/11 07:40:05;;;;;;;4.90;1.47;;;;;;;8.04;58.59;99603.13;1792005;79;20989;-59
2022/04/11 07:42:31;;;;;;;6.97;1.90;;;;;;;8.04;58.59;99603.13;1793398;79;21551;-62
2022/04/11 07:44:58;;;;;;;4.55;1.85;;;;;;;7.55;59.10;99594.11;1796699;78;21008;-61
2022/04/11 07:47:25;;;;;;;6.53;2.23;;;;;;;7.50;60.17;99608.17;1792859;78;22313;-62
2022/04/11 07:49:51;;;;;;;8.53;1.90;;;;;;;7.42;59.53;99599.80;1790720;79;21449;-62
2022/04/11 07:52:18;;;;;;;6.70;1.52;;;;;;;7.40;60.31;99597.28;1791153;78;21049;-61
2022/04/11 07:54:45;;;;;;;6.77;1.73;;;;;;;7.40;60.31;99597.28;1789852;79;21560;-61
2022/04/11 07:57:12;;;;;;;5.77;1.50;;;;;;;7.51;59.79;99608.59;1791655;78;20927;-61
2022/04/11 07:59:38;;;;;;;;;;;;;;;7.59;59.99;99603.95;1791354;78;21628;-61
2022/04/11 08:02:06;;;;;;;3.47;0.90;;;;;;;7.68;59.44;99617.06;1767519;79;22185;-61
2022/04/11 08:04:33;;;;;;;5.10;1.55;;;;;;;7.19;58.43;99613.16;1785997;79;20915;-60
2022/04/11 08:07:01;;;;;;;6.65;1.85;;;;;;;6.87;58.48;99619.02;1790030;79;21116;-60
2022/04/11 08:09:28;;;;;;;7.60;2.70;;;;;;;6.66;58.93;99623.61;1795515;78;21001;-62
2022/04/11 08:11:55;;;;;;;7.97;2.35;;;;;;;6.55;58.78;99624.41;1790883;78;21042;-61
2022/04/11 08:14:22;;;;;;;7.28;2.33;;;;;;;6.47;59.01;99628.13;1793016;79;21458;-62
2022/04/11 08:16:48;;;;;;;5.78;1.62;;;;;;;6.60;59.50;99625.12;1788360;79;21033;-62
2022/04/11 08:19:15;;;;;;;5.47;1.55;;;;;;;7.24;59.89;99627.30;1790735;79;21041;-62
2022/04/11 08:21:42;;;;;;;8.50;2.03;;;;;;;7.84;59.66;99625.53;1790952;79;20987;-63
2022/04/11 08:24:08;;;;;;;10.37;2.07;;;;;;;8.32;59.75;99625.42;1786496;78;20952;-62
2022/04/11 08:26:35;;;;;;;4.90;1.57;;;;;;;8.42;58.84;99623.73;1792038;79;21443;-62
2022/04/11 08:29:02;;;;;;;4.78;1.65;;;;;;;8.36;58.63;99620.51;1790153;79;20985;-62
2022/04/11 08:31:29;;;;;;;5.87;1.40;;;;;;;8.37;58.93;99622.19;1789645;79;21007;-60
2022/04/11 08:33:56;;;;;;;4.08;0.95;;;;;;;8.30;58.32;99622.44;1790990;79;21369;-61
2022/04/11 08:36:24;;;;;;;6.25;1.90;;;;;;;8.07;57.20;99627.70;1790239;78;21173;-62
2022/04/11 08:38:52;;;;;;;7.55;1.40;;;;;;;7.65;58.11;99633.61;1791524;79;22335;-60
2022/04/11 08:41:19;;;;;;;5.37;1.22;;;;;;;7.66;58.77;99631.39;1792577;79;20994;-60
2022/04/11 08:43:54;;;;;;;11.55;1.50;;;;;;;7.97;58.33;99628.95;1789413;79;21023;-60
2022/04/11 08:46:22;;;;;;;16.17;2.37;;;;;;;7.75;57.92;99628.91;1796586;77;21115;-63
2022/04/11 08:48:49;;;;;;;5.72;1.82;;;;;;;7.75;57.96;99634.10;1793077;78;20907;-62
2022/04/11 08:51:15;;;;;;;5.67;1.40;;;;;;;7.68;57.93;99633.95;1793658;79;21759;-60
2022/04/11 08:53:44;;;;;;;7.20;1.50;;;;;;;7.45;57.58;99629.56;1794030;77;21033;-60
2022/04/11 08:56:10;;;;;;;5.28;1.50;;;;;;;7.29;57.54;99639.22;1769253;79;21014;-60
2022/04/11 08:58:41;;;;;;;5.10;1.57;;;;;;;6.99;57.06;99640.27;1761727;80;21197;-63
2022/04/11 09:01:05;;;;;;;4.70;1.75;;;;;;;6.78;56.85;99640.09;1792285;78;21585;-60
2022/04/11 09:03:32;;;;;;;2.98;1.37;;;;;;;6.69;57.05;99633.89;1772900;79;21315;-60
2022/04/11 09:06:09;;;;;;;5.53;1.90;;;;;;;6.66;56.87;99648.27;1793943;78;20935;-61
2022/04/11 09:08:54;;;;;;;4.65;1.30;;;;;;;6.84;57.90;99639.89;1793364;78;21056;-60
2022/04/11 09:11:37;;;;;;;5.78;1.60;;;;;;;7.27;57.22;99642.31;1768978;79;21074;-60
2022/04/11 09:14:07;;;;;;;4.55;1.98;;;;;;;7.13;55.63;99632.85;1769337;79;22396;-60
2022/04/11 09:16:51;;;;;;;6.83;1.67;;;;;;;7.03;56.80;99631.46;1757792;80;21089;-60
2022/04/11 09:19:27;;;;;;;5.90;2.27;;;;;;;7.07;56.88;99638.27;1757323;79;21047;-60
2022/04/11 09:21:58;;;;;;;7.97;1.90;;;;;;;7.07;57.10;99638.27;1759560;80;21618;-60
2022/04/11 09:24:30;;;;;;;;;;;;;;;7.16;57.15;99640.53;1767014;80;21032;-60
2022/04/11 09:26:57;;;;;;;5.37;1.57;;;;;;;7.26;56.93;99631.53;1764854;80;20508;-60
2022/04/11 09:29:26;;;;;;;7.12;1.92;;;;;;;7.23;56.56;99642.03;1763457;80;21281;-60
2022/04/11 09:32:00;;;;;;;6.08;1.62;;;;;;;7.27;56.93;99639.71;1752693;80;21004;-60
2022/04/11 09:34:26;;;;;;;4.17;1.32;;;;;;;7.76;56.52;99639.26;1758807;80;21100;-60
2022/04/11 09:36:56;;;;;;;4.67;1.37;;;;;;;7.81;56.52;99633.87;1756198;80;21051;-60
2022/04/11 09:39:28;;;;;;;5.90;1.60;;;;;;;7.91;56.65;99634.39;1763855;79;20906;-60
2022/04/11 09:41:57;;;;;;;8.83;1.90;;;;;;;8.09;56.81;99633.67;1764958;80;21202;-60
2022/04/11 09:44:33;;;;;;;4.25;1.32;;;;;;;8.26;56.68;99643.42;1770358;79;21036;-60
2022/04/11 09:47:05;;;;;;;4.83;1.65;;;;;;;8.43;57.04;99622.84;1752966;79;21111;-60
2022/04/11 09:49:33;;;;;;;7.53;1.75;;;;;;;8.45;55.75;99643.58;1775408;78;21046;-59
2022/04/11 09:52:09;;;;;;;;;;;;;;;8.45;55.75;99643.58;1740263;80;21067;-60
2022/04/11 09:54:44;;;;;;;11.90;1.42;;;;;;;8.22;55.01;99641.86;1765014;80;21073;-60
2022/04/11 09:57:17;;;;;;;4.78;1.42;;;;;;;7.84;54.99;99654.12;1761784;80;22237;-60
2022/04/11 09:59:45;;;;;;;2.37;0.93;;;;;;;7.54;53.57;99651.34;1763242;80;21012;-60
2022/04/11 10:02:17;;;;;;;9.18;1.27;;;;;;;7.33;55.00;99656.83;1774327;79;21045;-60
2022/04/11 10:04:48;;;;;;;6.10;1.27;;;;;;;7.16;55.03;99656.11;1748979;80;20977;-59
2022/04/11 10:07:14;;;;;;;5.35;1.15;;;;;;;7.15;55.03;99657.03;1744191;80;21412;-60
2022/04/11 10:09:42;;;;;;;11.63;2.80;;;;;;;7.25;55.48;99658.39;1744879;78;21052;-60
2022/04/11 10:12:10;;;;;;;3.77;1.40;;;;;;;7.64;55.81;99650.09;1800016;78;20995;-60
2022/04/11 10:14:38;;;;;;;4.40;1.32;;;;;;;7.92;55.57;99651.21;1800656;78;21669;-60
2022/04/11 10:17:05;;;;;;;3.45;1.17;;;;;;;8.14;55.39;99656.91;1767160;78;21013;-59
2022/04/11 10:19:35;;;;;;;4.53;1.20;;;;;;;8.37;55.37;99661.22;1801293;78;22247;-60
2022/04/11 10:22:27;;;;;;;4.78;1.55;;;;;;;8.71;55.68;99663.34;1767529;78;20958;-60
2022/04/11 10:25:06;;;;;;;3.33;1.20;;;;;;;8.94;55.11;99654.62;1798568;78;21086;-60
2022/04/11 10:27:34;;;;;;;3.72;1.10;;;;;;;8.94;55.11;99654.62;1778876;78;20990;-60
2022/04/11 10:30:03;;;;;;;3.72;1.10;;;;;;;8.85;53.99;99662.36;1770600;80;21555;-61
2022/04/11 10:32:31;;;;;;;3.08;1.00;;;;;;;8.34;53.14;99652.23;1794517;78;21486;-60
2022/04/11 10:35:08;;;;;;;6.50;1.65;;;;;;;8.10;53.51;99670.49;1796775;78;21001;-60
2022/04/11 10:37:57;;;;;;;3.20;0.95;;;;;;;8.27;54.53;99662.88;1793856;78;21048;-59
2022/04/11 10:40:27;;;;;;;4.10;1.30;;;;;;;8.73;54.68;99664.98;1768007;80;21695;-60
2022/04/11 10:43:12;;;;;;;3.50;1.20;;;;;;;9.27;53.90;99658.86;1784709;78;21022;-60
2022/04/11 10:45:46;;;;;;;4.72;1.20;;;;;;;9.27;53.90;99658.86;1778245;79;21211;-60
2022/04/11 10:48:35;;;;;;;4.03;1.30;;;;;;;9.01;53.32;99671.66;1793509;78;21208;-60
2022/04/11 10:51:07;;;;;;;8.50;1.15;;;;;;;8.52;52.65;99678.88;1663084;83;21644;-60
2022/04/11 10:53:34;;;;;;;3.62;1.10;;;;;;;7.98;52.54;99663.13;1654385;83;21731;-59
2022/04/11 10:56:08;;;;;;;10.45;1.42;;;;;;;7.51;51.75;99678.73;1681673;82;21571;-59
2022/04/11 10:58:51;;;;;;;2.67;1.10;;;;;;;7.28;53.14;99680.38;1676084;83;21346;-59
2022/04/11 11:01:49;;;;;;;6.33;1.32;;;;;;;7.49;53.52;99679.23;1682523;84;21225;-60
2022/04/11 11:04:26;;;;;;;3.72;1.00;;;;;;;7.74;53.60;99682.64;1681110;84;22234;-64
2022/04/11 11:07:23;;;;;;;3.23;1.10;;;;;;;7.99;53.57;99683.05;1674798;83;21034;-61
2022/04/11 11:09:58;;;;;;;3.65;1.12;;;;;;;8.15;53.83;99676.80;1669228;83;21131;-61
2022/04/11 11:12:26;;;;;;;3.67;1.45;;;;;;;8.65;53.65;99674.86;1682888;84;21094;-59
2022/04/11 11:14:53;;;;;;;3.35;1.25;;;;;;;8.68;53.38;99678.66;1676079;83;21103;-58
2022/04/11 11:17:19;;;;;;;3.30;1.00;;;;;;;8.69;53.00;99681.65;1673024;84;21104;-64
2022/04/11 11:20:07;;;;;;;4.63;1.10;;;;;;;8.45;52.60;99681.31;1680981;84;21039;-60
2022/04/11 11:23:16;;;;;;;4.55;1.40;;;;;;;8.36;53.20;99684.25;1685764;84;21103;-60
2022/04/11 11:25:43;;;;;;;3.55;1.15;;;;;;;8.31;52.58;99687.02;1678415;84;21434;-60
2022/04/11 11:28:13;;;;;;;6.65;2.22;;;;;;;8.07;52.69;99687.05;1688008;83;21099;-61
2022/04/11 11:30:40;;;;;;;3.37;1.25;;;;;;;8.03;52.94;99688.06;1672994;83;21207;-59
2022/04/11 11:33:14;;;;;;;2.62;0.90;;;;;;;8.05;52.87;99689.31;1682152;83;21089;-60
2022/04/11 11:35:53;;;;;;;2.90;1.00;;;;;;;8.08;52.81;99690.50;1677655;84;21041;-60
2022/04/11 11:38:26;;;;;;;5.50;1.37;;;;;;;8.38;53.08;99688.95;1680711;83;21040;-60
2022/04/11 11:40:56;;;;;;;2.08;0.90;;;;;;;8.55;52.77;99676.61;1674952;83;21115;-60
2022/04/11 11:43:30;;;;;;;4.08;1.15;;;;;;;8.82;53.09;99682.44;1682259;83;20973;-59
2022/04/11 11:46:07;;;;;;;2.92;0.80;;;;;;;9.34;53.22;99673.77;1677877;83;21127;-60